createdAt,value
2023-05-12T00:00:19.665Z,47.20
2023-05-12T00:02:47.324Z,46.36
2023-05-12T00:05:14.675Z,47.01
2023-05-12T00:07:42.116Z,46.87
2023-05-12T00:10:09.772Z,47.18
2023-05-12T00:12:37.368Z,46.95
2023-05-12T00:15:05.771Z,46.67
2023-05-12T00:17:33.001Z,46.97
2023-05-12T00:20:00.455Z,47.31
2023-05-12T00:22:27.798Z,47.19
2023-05-12T00:24:55.250Z,47.67
2023-05-12T00:27:22.563Z,47.10
2023-05-12T00:29:49.860Z,47.14
2023-05-12T00:32:17.216Z,47.12
2023-05-12T00:34:44.342Z,47.19
2023-05-12T00:37:11.510Z,47.39
2023-05-12T00:39:38.923Z,47.39
2023-05-12T00:42:06.688Z,47.66
2023-05-12T00:44:34.278Z,47.44
2023-05-12T00:47:01.587Z,47.46
2023-05-12T00:49:29.018Z,47.17
2023-05-12T00:51:59.101Z,47.67
2023-05-12T00:54:27.465Z,47.82
2023-05-12T00:56:55.331Z,47.97
2023-05-12T00:59:23.630Z,47.45
2023-05-12T01:01:51.001Z,47.68
2023-05-12T01:04:18.347Z,47.83
2023-05-12T01:06:55.038Z,48.13
2023-05-12T01:09:22.474Z,47.92
2023-05-12T01:11:49.977Z,48.11
2023-05-12T01:14:18.260Z,48.32
2023-05-12T01:16:56.773Z,48.14
2023-05-12T01:19:52.494Z,48.25
2023-05-12T01:22:21.681Z,48.13
2023-05-12T01:24:58.088Z,48.24
2023-05-12T01:27:27.765Z,48.85
2023-05-12T01:30:00.638Z,48.56
2023-05-12T01:32:30.698Z,49.02
2023-05-12T01:34:58.817Z,48.95
2023-05-12T01:37:27.130Z,48.90
2023-05-12T01:39:55.612Z,49.26
2023-05-12T01:42:22.794Z,49.45
2023-05-12T01:44:50.635Z,49.56
2023-05-12T01:47:18.059Z,49.79
2023-05-12T01:50:04.048Z,49.73
2023-05-12T01:52:31.580Z,49.31
2023-05-12T01:54:59.029Z,50.00
2023-05-12T01:57:31.178Z,49.89
2023-05-12T02:00:00.907Z,49.83
2023-05-12T02:02:30.457Z,50.25
2023-05-12T02:04:57.855Z,50.39
2023-05-12T02:07:25.090Z,50.36
2023-05-12T02:09:52.657Z,50.27
2023-05-12T02:12:20.168Z,50.63
2023-05-12T02:14:47.722Z,50.08
2023-05-12T02:17:15.264Z,50.71
2023-05-12T02:19:42.723Z,50.92
2023-05-12T02:22:12.899Z,50.60
2023-05-12T02:24:40.214Z,50.69
2023-05-12T02:27:07.622Z,51.01
2023-05-12T02:29:34.985Z,51.16
2023-05-12T02:32:02.556Z,51.19
2023-05-12T02:34:29.943Z,51.28
2023-05-12T02:36:57.279Z,51.60
2023-05-12T02:39:24.726Z,51.82
2023-05-12T02:41:51.994Z,51.43
2023-05-12T02:44:22.561Z,51.55
2023-05-12T02:46:50.570Z,52.09
2023-05-12T02:49:17.942Z,52.02
2023-05-12T02:51:46.582Z,51.92
2023-05-12T02:54:13.819Z,52.22
2023-05-12T02:56:41.069Z,52.22
2023-05-12T02:59:08.416Z,52.40
2023-05-12T03:01:35.893Z,52.36
2023-05-12T03:04:03.283Z,52.67
2023-05-12T03:06:30.961Z,52.77
2023-05-12T03:08:59.984Z,52.88
2023-05-12T03:11:27.312Z,52.84
2023-05-12T03:13:54.586Z,52.79
2023-05-12T03:16:22.350Z,53.09
2023-05-12T03:18:49.893Z,53.34
2023-05-12T03:21:17.414Z,53.25
2023-05-12T03:23:44.600Z,53.28
2023-05-12T03:26:11.788Z,53.38
2023-05-12T03:28:39.400Z,53.59
2023-05-12T03:31:06.885Z,54.02
2023-05-12T03:33:34.152Z,53.73
2023-05-12T03:36:01.415Z,53.64
2023-05-12T03:38:29.015Z,54.01
2023-05-12T03:41:08.888Z,53.83
2023-05-12T03:43:36.930Z,53.99
2023-05-12T03:46:04.480Z,53.95
2023-05-12T03:48:32.078Z,54.05
2023-05-12T03:50:59.388Z,54.38
2023-05-12T03:53:28.428Z,53.91
2023-05-12T03:55:56.846Z,54.25
2023-05-12T03:58:24.521Z,54.27
2023-05-12T04:00:51.920Z,54.12
2023-05-12T04:03:19.307Z,54.14
2023-05-12T04:05:46.751Z,54.08
2023-05-12T04:08:14.962Z,54.07
2023-05-12T04:10:42.726Z,54.01
2023-05-12T04:13:09.983Z,54.18
2023-05-12T04:15:37.549Z,53.56
2023-05-12T04:18:04.943Z,53.84
2023-05-12T04:20:32.337Z,53.58
2023-05-12T04:22:59.722Z,53.59
2023-05-12T04:25:27.109Z,53.64
2023-05-12T04:27:54.392Z,53.45
2023-05-12T04:30:22.695Z,53.70
2023-05-12T04:32:50.187Z,52.84
2023-05-12T04:35:17.667Z,53.01
2023-05-12T04:37:45.013Z,53.61
2023-05-12T04:40:12.533Z,53.16
2023-05-12T04:42:39.735Z,52.92
2023-05-12T04:45:09.898Z,53.00
2023-05-12T04:47:37.400Z,53.38
2023-05-12T04:50:06.064Z,52.93
2023-05-12T04:52:33.569Z,53.50
2023-05-12T04:55:00.895Z,52.63
2023-05-12T04:57:28.467Z,52.83
2023-05-12T04:59:56.776Z,53.35
2023-05-12T05:02:25.681Z,53.18
2023-05-12T05:04:53.127Z,52.76
2023-05-12T05:07:22.585Z,52.75
2023-05-12T05:09:49.969Z,53.11
2023-05-12T05:12:17.346Z,52.94
2023-05-12T05:14:44.987Z,53.25
2023-05-12T05:17:13.351Z,52.85
2023-05-12T05:19:55.233Z,53.03
2023-05-12T05:22:25.847Z,52.84
2023-05-12T05:24:53.255Z,52.91
2023-05-12T05:27:20.950Z,52.45
2023-05-12T05:29:49.554Z,52.59
2023-05-12T05:32:17.270Z,52.32
2023-05-12T05:34:45.157Z,52.37
2023-05-12T05:37:13.159Z,51.62
2023-05-12T05:39:40.621Z,52.18
2023-05-12T05:42:08.173Z,51.65
2023-05-12T05:44:36.371Z,51.81
2023-05-12T05:47:05.888Z,51.86
2023-05-12T05:49:33.404Z,51.42
2023-05-12T05:52:01.555Z,51.38
2023-05-12T05:54:29.080Z,51.73
2023-05-12T05:56:56.582Z,50.92
2023-05-12T05:59:24.662Z,50.66
2023-05-12T06:01:52.278Z,50.84
2023-05-12T06:04:19.778Z,50.93
2023-05-12T06:06:47.635Z,51.07
2023-05-12T06:09:15.967Z,50.86
2023-05-12T06:11:43.372Z,50.26
2023-05-12T06:14:11.676Z,49.62
2023-05-12T06:16:39.791Z,49.93
2023-05-12T06:19:08.613Z,49.33
2023-05-12T06:21:35.927Z,48.96
2023-05-12T06:24:03.967Z,48.54
2023-05-12T06:26:31.336Z,48.61
2023-05-12T06:28:58.713Z,47.67
2023-05-12T06:31:26.253Z,47.66
2023-05-12T06:33:53.544Z,47.20
2023-05-12T06:36:21.120Z,47.30
2023-05-12T06:38:48.522Z,46.90
2023-05-12T06:41:15.915Z,46.18
2023-05-12T06:43:43.618Z,45.72
2023-05-12T06:46:10.993Z,45.29
2023-05-12T06:48:38.942Z,45.29
2023-05-12T06:51:07.279Z,45.11
2023-05-12T06:53:38.031Z,44.18
2023-05-12T06:56:06.611Z,44.58
2023-05-12T06:58:35.219Z,44.95
2023-05-12T07:01:03.004Z,43.45
2023-05-12T07:03:33.476Z,43.56
2023-05-12T07:06:01.618Z,43.01
2023-05-12T07:08:29.756Z,43.18
2023-05-12T07:11:00.183Z,43.41
2023-05-12T07:13:28.578Z,43.39
2023-05-12T07:15:56.883Z,42.29
2023-05-12T07:18:25.147Z,42.20
2023-05-12T07:20:53.928Z,42.24
2023-05-12T07:23:22.077Z,42.63
2023-05-12T07:25:49.964Z,42.22
2023-05-12T07:28:17.669Z,41.40
2023-05-12T07:30:45.616Z,40.83
2023-05-12T07:33:13.711Z,40.54
2023-05-12T07:35:41.859Z,40.92
2023-05-12T07:38:10.079Z,40.65
2023-05-12T07:40:37.947Z,40.37
2023-05-12T07:43:05.786Z,40.34
2023-05-12T07:45:33.596Z,40.34
2023-05-12T07:48:01.555Z,39.22
2023-05-12T07:50:29.485Z,38.72
2023-05-12T07:52:57.489Z,38.88
2023-05-12T07:55:26.196Z,38.61
2023-05-12T07:57:54.479Z,38.86
2023-05-12T08:00:22.877Z,39.63
2023-05-12T08:02:50.975Z,38.74
2023-05-12T08:05:19.396Z,37.41
2023-05-12T08:07:47.762Z,37.29
2023-05-12T08:10:15.433Z,36.05
2023-05-12T08:12:44.263Z,36.45
2023-05-12T08:15:12.950Z,36.92
2023-05-12T08:17:40.700Z,36.10
2023-05-12T08:20:09.711Z,35.38
2023-05-12T08:22:37.623Z,35.66
2023-05-12T08:25:06.476Z,35.46
2023-05-12T08:27:34.766Z,34.82
2023-05-12T08:30:02.889Z,34.12
2023-05-12T08:32:30.929Z,34.65
2023-05-12T08:34:59.122Z,33.86
2023-05-12T08:37:27.826Z,33.01
2023-05-12T08:39:56.187Z,33.70
2023-05-12T08:42:43.622Z,32.12
2023-05-12T08:45:12.614Z,31.27
2023-05-12T08:47:44.032Z,31.72
2023-05-12T08:50:14.717Z,31.71
2023-05-12T08:52:42.565Z,31.49
2023-05-12T08:55:11.436Z,30.64
2023-05-12T08:57:43.208Z,29.98
2023-05-12T09:00:12.564Z,31.04
2023-05-12T09:02:52.993Z,30.33
2023-05-12T09:05:23.869Z,30.38
2023-05-12T09:07:55.304Z,29.25
2023-05-12T09:13:01.676Z,28.40
2023-05-12T09:15:42.539Z,28.89
2023-05-12T09:18:10.638Z,29.06
2023-05-12T09:20:38.894Z,29.59
2023-05-12T09:23:18.329Z,29.76
2023-05-12T09:25:47.334Z,30.24
2023-05-12T09:28:15.728Z,30.28
2023-05-12T09:30:43.737Z,30.18
2023-05-12T09:33:13.318Z,29.84
2023-05-12T09:35:46.999Z,30.47
2023-05-12T09:38:15.667Z,30.07
2023-05-12T09:40:43.980Z,30.45
2023-05-12T09:43:15.084Z,30.25
2023-05-12T09:45:44.661Z,30.46
2023-05-12T09:48:14.558Z,30.20
2023-05-12T09:50:51.790Z,29.97
2023-05-12T09:53:23.371Z,30.24
2023-05-12T09:55:51.793Z,30.05
2023-05-12T09:58:21.157Z,30.05
2023-05-12T10:01:12.898Z,29.16
2023-05-12T10:03:38.910Z,29.64
2023-05-12T10:06:09.138Z,29.45
2023-05-12T10:08:44.354Z,29.45
2023-05-12T10:11:12.762Z,30.15
2023-05-12T10:13:42.214Z,29.28
2023-05-12T10:16:11.024Z,28.88
2023-05-12T10:18:40.872Z,29.15
2023-05-12T10:21:12.313Z,29.08
2023-05-12T10:23:44.993Z,29.32
2023-05-12T10:26:14.000Z,29.70
2023-05-12T10:28:43.316Z,29.25
2023-05-12T10:31:12.544Z,29.12
2023-05-12T10:33:40.424Z,28.60
2023-05-12T10:36:20.638Z,29.50
2023-05-12T10:38:52.253Z,28.73
2023-05-12T10:41:34.785Z,28.45
2023-05-12T10:44:03.107Z,27.69
2023-05-12T10:46:31.531Z,28.09
2023-05-12T10:49:06.999Z,27.93
2023-05-12T10:51:45.344Z,28.28
2023-05-12T10:54:20.352Z,27.83
2023-05-12T10:56:49.570Z,27.64
2023-05-12T10:59:22.452Z,27.67
2023-05-12T11:02:14.123Z,27.55
2023-05-12T11:04:50.577Z,27.83
2023-05-12T11:07:24.259Z,28.25
2023-05-12T11:09:58.549Z,27.56
2023-05-12T11:12:33.155Z,28.05
2023-05-12T11:15:05.752Z,28.47
2023-05-12T11:17:33.688Z,28.64
2023-05-12T11:20:01.972Z,28.90
2023-05-12T11:22:30.338Z,28.58
2023-05-12T11:24:58.387Z,27.52
2023-05-12T11:27:26.354Z,27.76
2023-05-12T11:30:03.184Z,28.61
2023-05-12T11:32:31.443Z,28.81
2023-05-12T11:35:10.073Z,28.81
2023-05-12T11:37:40.391Z,29.37
2023-05-12T11:40:19.362Z,28.05
2023-05-12T11:42:56.795Z,28.22
2023-05-12T11:45:27.453Z,28.45
2023-05-12T11:48:08.010Z,28.79
2023-05-12T11:50:39.972Z,28.56
2023-05-12T11:53:16.175Z,28.51
2023-05-12T11:55:55.329Z,28.13
2023-05-12T11:58:27.114Z,28.21
2023-05-12T12:00:55.557Z,28.60
2023-05-12T12:03:24.702Z,28.10
2023-05-12T12:06:01.912Z,28.57
2023-05-12T12:08:30.323Z,28.58
2023-05-12T12:10:59.642Z,29.05
2023-05-12T12:13:29.306Z,29.03
2023-05-12T12:15:57.433Z,28.74
2023-05-12T12:18:25.586Z,29.07
2023-05-12T12:20:53.369Z,28.35
2023-05-12T12:23:21.567Z,28.08
2023-05-12T12:25:49.461Z,28.34
2023-05-12T12:28:17.600Z,28.12
2023-05-12T12:30:45.929Z,28.32
2023-05-12T12:33:13.762Z,28.50
2023-05-12T12:35:42.086Z,28.13
2023-05-12T12:38:10.059Z,28.45
2023-05-12T12:40:37.889Z,28.75
2023-05-12T12:43:05.751Z,28.98
2023-05-12T12:45:33.712Z,28.29
2023-05-12T12:48:01.689Z,28.74
2023-05-12T12:50:30.935Z,28.82
2023-05-12T12:52:58.666Z,28.46
2023-05-12T12:55:26.868Z,28.78
2023-05-12T12:57:54.592Z,29.03
2023-05-12T13:00:23.950Z,29.14
2023-05-12T13:02:52.527Z,29.04
2023-05-12T13:05:21.298Z,29.89
2023-05-12T13:07:50.534Z,28.95
2023-05-12T13:10:18.962Z,28.80
2023-05-12T13:12:47.148Z,28.89
2023-05-12T13:15:16.013Z,29.25
2023-05-12T13:17:48.460Z,28.74
2023-05-12T13:20:16.759Z,28.50
2023-05-12T13:22:46.618Z,29.00
2023-05-12T13:25:14.672Z,29.13
2023-05-12T13:27:43.049Z,28.85
2023-05-12T13:30:13.481Z,29.51
2023-05-12T13:32:42.153Z,29.59
2023-05-12T13:35:10.637Z,29.50
2023-05-12T13:37:38.777Z,28.87
2023-05-12T13:40:07.742Z,28.47
2023-05-12T13:42:35.676Z,28.76
2023-05-12T13:45:04.352Z,28.69
2023-05-12T13:47:32.411Z,29.20
2023-05-12T13:50:00.544Z,29.54
2023-05-12T13:52:28.752Z,29.33
2023-05-12T13:54:56.771Z,29.38
2023-05-12T13:57:24.735Z,29.01
2023-05-12T13:59:52.640Z,29.11
2023-05-12T14:02:20.716Z,29.56
2023-05-12T14:04:49.440Z,29.64
2023-05-12T14:07:19.662Z,29.93
2023-05-12T14:09:47.604Z,29.22
2023-05-12T14:12:16.610Z,29.72
2023-05-12T14:14:49.955Z,29.23
2023-05-12T14:17:19.081Z,29.30
2023-05-12T14:19:47.149Z,29.58
2023-05-12T14:22:25.409Z,29.58
2023-05-12T14:24:56.079Z,30.02
2023-05-12T14:27:24.336Z,29.90
2023-05-12T14:29:52.446Z,29.52
2023-05-12T14:32:20.642Z,29.32
2023-05-12T14:34:48.662Z,29.60
2023-05-12T14:37:18.544Z,29.90
2023-05-12T14:39:46.618Z,30.84
2023-05-12T14:42:14.980Z,29.90
2023-05-12T14:44:42.746Z,30.13
2023-05-12T14:47:10.357Z,29.71
2023-05-12T14:49:38.587Z,30.47
2023-05-12T14:52:06.996Z,30.13
2023-05-12T14:54:35.209Z,29.82
2023-05-12T14:57:04.627Z,30.56
2023-05-12T14:59:33.209Z,30.24
2023-05-12T15:02:01.181Z,30.39
2023-05-12T15:04:29.630Z,30.02
2023-05-12T15:06:57.711Z,30.17
2023-05-12T15:09:25.307Z,30.20
2023-05-12T15:11:53.604Z,30.01
2023-05-12T15:14:21.371Z,30.02
2023-05-12T15:16:49.458Z,30.16
2023-05-12T15:19:17.886Z,29.40
2023-05-12T15:21:45.732Z,29.56
2023-05-12T15:24:15.919Z,29.84
2023-05-12T15:26:43.888Z,30.24
2023-05-12T15:29:11.661Z,29.83
2023-05-12T15:31:39.756Z,29.93
2023-05-12T15:34:07.808Z,30.08
2023-05-12T15:36:35.919Z,29.88
2023-05-12T15:39:03.993Z,29.99
2023-05-12T15:41:32.068Z,29.35
2023-05-12T15:43:59.958Z,29.33
2023-05-12T15:46:27.931Z,29.12
2023-05-12T15:48:56.158Z,29.39
2023-05-12T15:51:28.878Z,29.38
2023-05-12T15:53:56.761Z,29.22
2023-05-12T15:56:24.790Z,29.24
2023-05-12T15:58:53.231Z,29.41
2023-05-12T16:01:21.678Z,28.59
2023-05-12T16:03:54.153Z,29.11
2023-05-12T16:06:22.396Z,28.86
2023-05-12T16:08:51.197Z,28.22
2023-05-12T16:11:19.257Z,28.61
2023-05-12T16:13:47.676Z,28.55
2023-05-12T16:16:16.331Z,28.46
2023-05-12T16:18:44.426Z,28.61
2023-05-12T16:21:13.105Z,28.65
2023-05-12T16:23:41.125Z,28.45
2023-05-12T16:26:09.566Z,28.65
2023-05-12T16:28:37.404Z,28.96
2023-05-12T16:31:05.396Z,29.30
2023-05-12T16:33:33.166Z,29.38
2023-05-12T16:36:01.381Z,29.79
2023-05-12T16:38:30.407Z,29.64
2023-05-12T16:40:58.096Z,29.60
2023-05-12T16:43:26.551Z,29.58
2023-05-12T16:46:04.783Z,29.22
2023-05-12T16:48:36.734Z,28.92
2023-05-12T16:51:09.560Z,28.84
2023-05-12T16:53:39.054Z,28.84
2023-05-12T16:56:07.535Z,28.71
2023-05-12T16:58:35.496Z,28.91
2023-05-12T17:01:04.005Z,29.43
2023-05-12T17:03:32.199Z,29.80
2023-05-12T17:06:00.263Z,29.95
2023-05-12T17:08:28.308Z,29.98
2023-05-12T17:10:56.473Z,29.95
2023-05-12T17:13:24.445Z,29.94
2023-05-12T17:15:52.736Z,29.95
2023-05-12T17:18:21.162Z,30.27
2023-05-12T17:20:49.009Z,30.36
2023-05-12T17:23:16.984Z,30.30
2023-05-12T17:25:44.898Z,30.57
2023-05-12T17:28:13.174Z,30.71
2023-05-12T17:30:42.079Z,30.97
2023-05-12T17:33:10.288Z,31.12
2023-05-12T17:35:38.255Z,31.00
2023-05-12T17:38:06.349Z,31.05
2023-05-12T17:40:34.529Z,31.61
2023-05-12T17:43:02.854Z,31.30
2023-05-12T17:45:30.593Z,31.18
2023-05-12T17:47:58.919Z,31.34
2023-05-12T17:50:27.322Z,31.46
2023-05-12T17:52:56.225Z,31.70
2023-05-12T17:55:24.324Z,31.76
2023-05-12T17:57:52.982Z,32.13
2023-05-12T18:00:21.432Z,32.05
2023-05-12T18:02:49.588Z,32.10
2023-05-12T18:05:17.736Z,32.23
2023-05-12T18:07:45.611Z,32.24
2023-05-12T18:10:13.465Z,32.05
2023-05-12T18:12:41.398Z,32.43
2023-05-12T18:15:09.998Z,32.71
2023-05-12T18:17:38.193Z,32.46
2023-05-12T18:20:07.612Z,32.47
2023-05-12T18:22:35.562Z,32.38
2023-05-12T18:25:03.841Z,32.67
2023-05-12T18:27:32.178Z,33.05
2023-05-12T18:30:00.071Z,32.90
2023-05-12T18:32:28.541Z,32.87
2023-05-12T18:34:56.808Z,33.41
2023-05-12T18:37:25.356Z,33.42
2023-05-12T18:39:55.065Z,33.12
2023-05-12T18:42:23.065Z,33.37
2023-05-12T18:44:52.036Z,33.78
2023-05-12T18:47:20.244Z,33.47
2023-05-12T18:49:48.406Z,33.92
2023-05-12T18:52:16.505Z,33.96
2023-05-12T18:54:48.144Z,34.42
2023-05-12T18:57:17.838Z,34.39
2023-05-12T18:59:46.027Z,34.32
2023-05-12T19:02:14.226Z,34.47
2023-05-12T19:04:42.559Z,34.57
2023-05-12T19:07:10.749Z,35.05
2023-05-12T19:09:38.491Z,34.90
2023-05-12T19:12:11.302Z,34.77
2023-05-12T19:14:43.657Z,35.09
2023-05-12T19:17:12.136Z,35.23
2023-05-12T19:19:40.437Z,35.14
2023-05-12T19:22:08.672Z,35.21
2023-05-12T19:24:38.465Z,35.72
2023-05-12T19:27:06.567Z,35.90
2023-05-12T19:29:34.592Z,36.08
2023-05-12T19:32:02.901Z,35.58
2023-05-12T19:34:32.137Z,35.93
2023-05-12T19:37:03.249Z,36.22
2023-05-12T19:39:31.352Z,36.52
2023-05-12T19:41:59.556Z,36.59
2023-05-12T19:44:29.421Z,36.88
2023-05-12T19:47:04.954Z,36.73
2023-05-12T19:49:34.945Z,37.01
2023-05-12T19:52:03.962Z,37.33
2023-05-12T19:54:32.638Z,37.14
2023-05-12T19:57:00.718Z,37.55
2023-05-12T19:59:28.441Z,37.55
2023-05-12T20:01:56.999Z,37.62
2023-05-12T20:04:26.099Z,37.78
2023-05-12T20:06:55.090Z,37.80
2023-05-12T20:09:25.208Z,37.78
2023-05-12T20:11:53.380Z,37.77
2023-05-12T20:14:21.624Z,37.80
2023-05-12T20:16:49.735Z,37.83
2023-05-12T20:19:18.110Z,37.89
2023-05-12T20:21:46.200Z,37.83
2023-05-12T20:24:14.037Z,37.77
2023-05-12T20:26:42.009Z,38.17
2023-05-12T20:29:10.196Z,38.09
2023-05-12T20:31:38.126Z,38.41
2023-05-12T20:34:06.834Z,38.29
2023-05-12T20:36:34.609Z,38.37
2023-05-12T20:39:02.599Z,38.43
2023-05-12T20:41:30.326Z,38.48
2023-05-12T20:43:58.045Z,38.40
2023-05-12T20:46:26.716Z,38.37
2023-05-12T20:48:55.496Z,38.55
2023-05-12T20:51:23.847Z,38.40
2023-05-12T20:53:51.916Z,38.58
2023-05-12T20:56:23.096Z,38.57
2023-05-12T20:58:51.346Z,38.43
2023-05-12T21:01:19.489Z,38.45
2023-05-12T21:03:47.392Z,38.40
2023-05-12T21:06:15.627Z,38.79
2023-05-12T21:08:43.510Z,39.10
2023-05-12T21:11:16.374Z,38.75
2023-05-12T21:13:45.393Z,38.61
2023-05-12T21:16:14.200Z,38.90
2023-05-12T22:05:04.293Z,40.47
2023-05-12T22:20:27.765Z,41.45
2023-05-12T22:23:53.095Z,41.58
2023-05-12T22:35:31.762Z,41.69
2023-05-12T22:52:27.072Z,42.71
2023-05-12T22:59:17.383Z,42.32
2023-05-12T23:05:50.828Z,42.75
2023-05-12T23:12:36.224Z,43.14
2023-05-12T23:15:19.105Z,42.99
2023-05-12T23:18:17.252Z,43.52
2023-05-12T23:21:31.978Z,43.92
2023-05-12T23:24:52.586Z,43.88
2023-05-12T23:31:52.955Z,43.84
2023-05-12T23:38:25.286Z,43.83
2023-05-12T23:45:19.370Z,44.38
2023-05-12T23:51:26.201Z,44.50
2023-05-12T23:54:20.755Z,44.00
